Time;durP1;ratioP1;P1;durP2;ratioP2;P2;SDS_P1;SDS_P2;PMS_P1;PMS_P2;Temp;Humidity;BMP_temperature;BMP_pressure;BME280_temperature;BME280_humidity;BME280_pressure;Samples;Min_cycle;Max_cycle;Signal;HPM_P1;HPM_P2
2023/04/14 00:01:15;;;;;;;7.10;2.93;;;;;;;3.52;100.00;100714.03;4951239;28;20043;-67
2023/04/14 00:03:41;;;;;;;10.50;3.60;;;;;;;3.47;100.00;100716.28;4949696;28;20503;-67
2023/04/14 00:06:06;;;;;;;5.37;2.57;;;;;;;3.42;100.00;100716.84;4949440;28;20071;-67
2023/04/14 00:08:32;;;;;;;6.33;2.80;;;;;;;3.40;100.00;100720.97;4976991;28;20054;-67
2023/04/14 00:10:57;;;;;;;9.63;2.87;;;;;;;3.34;100.00;100719.81;4974377;28;20110;-67
2023/04/14 00:13:22;;;;;;;7.10;2.93;;;;;;;3.32;100.00;100718.84;4953133;28;20046;-67
2023/04/14 00:15:47;;;;;;;8.87;3.37;;;;;;;3.30;100.00;100712.75;4967034;28;20055;-67
2023/04/14 00:18:13;;;;;;;5.93;3.20;;;;;;;3.29;100.00;100715.22;4977834;28;20018;-67
2023/04/14 00:20:38;;;;;;;8.17;2.77;;;;;;;3.27;100.00;100722.81;4987637;28;20490;-67
2023/04/14 00:23:03;;;;;;;8.43;2.53;;;;;;;3.26;100.00;100722.72;4988673;28;20101;-67
2023/04/14 00:25:29;;;;;;;5.03;2.60;;;;;;;3.20;100.00;100721.53;4987965;28;20029;-67
2023/04/14 00:27:54;;;;;;;6.63;3.10;;;;;;;3.15;100.00;100719.50;4988408;28;20029;-67
2023/04/14 00:30:20;;;;;;;7.07;2.57;;;;;;;3.14;100.00;100725.41;4959187;28;20485;-67
2023/04/14 00:32:45;;;;;;;10.37;3.10;;;;;;;3.08;100.00;100716.56;4950430;28;20114;-68
2023/04/14 00:35:10;;;;;;;9.17;3.03;;;;;;;3.05;100.00;100718.94;4977154;28;20152;-67
2023/04/14 00:37:35;;;;;;;7.27;2.87;;;;;;;3.00;100.00;100713.53;4960782;28;20218;-68
2023/04/14 00:40:01;;;;;;;5.77;3.30;;;;;;;2.97;100.00;100720.13;4949780;28;20063;-67
2023/04/14 00:42:26;;;;;;;7.70;3.33;;;;;;;2.94;100.00;100718.28;4950004;28;20278;-67
2023/04/14 00:44:52;;;;;;;8.10;3.63;;;;;;;2.91;100.00;100722.34;4950343;28;20024;-68
2023/04/14 00:47:17;;;;;;;8.87;3.40;;;;;;;2.87;100.00;100719.59;4961898;28;20113;-68
2023/04/14 00:49:43;;;;;;;6.73;2.70;;;;;;;2.86;100.00;100725.50;4985930;28;20033;-67
2023/04/14 00:52:09;;;;;;;7.93;3.20;;;;;;;2.85;100.00;100733.97;4986484;28;20045;-68
2023/04/14 00:54:36;;;;;;;6.73;3.40;;;;;;;2.80;100.00;100732.81;4985130;28;20566;-68
2023/04/14 00:57:02;;;;;;;5.30;2.87;;;;;;;2.78;100.00;100730.94;4985633;28;20088;-67
2023/04/14 00:59:28;;;;;;;5.57;2.60;;;;;;;2.73;100.00;100738.34;4985873;28;20022;-68
2023/04/14 01:01:54;;;;;;;4.40;2.57;;;;;;;2.69;100.00;100736.38;4985371;28;20124;-67
2023/04/14 01:04:20;;;;;;;5.83;3.13;;;;;;;2.64;100.00;100738.66;4961605;28;20030;-68
2023/04/14 01:06:45;;;;;;;5.70;2.63;;;;;;;2.59;100.00;100742.59;4983774;28;20038;-68
2023/04/14 01:09:11;;;;;;;7.43;4.03;;;;;;;2.50;100.00;100740.34;4986611;28;20030;-67
2023/04/14 01:12:01;;;;;;;5.07;2.80;;;;;;;2.45;100.00;100742.59;4986410;28;20034;-68
2023/04/14 01:14:41;;;;;;;9.15;2.78;;;;;;;2.43;100.00;100739.03;4968777;28;20053;-68
2023/04/14 01:17:18;;;;;;;6.60;2.63;;;;;;;2.42;100.00;100742.41;4974704;28;20299;-67
2023/04/14 01:19:58;;;;;;;5.17;2.67;;;;;;;2.42;100.00;100746.63;4961093;28;20410;-68
2023/04/14 01:22:28;;;;;;;8.90;3.30;;;;;;;2.39;100.00;100737.97;4966011;28;20113;-67
2023/04/14 01:25:31;;;;;;;5.50;2.70;;;;;;;2.36;100.00;100742.88;4966079;28;20046;-67
2023/04/14 01:28:20;;;;;;;6.57;2.87;;;;;;;2.37;100.00;100746.34;4962878;28;20184;-67
2023/04/14 01:31:22;;;;;;;10.07;3.23;;;;;;;2.37;100.00;100742.13;4979199;28;20054;-68
2023/04/14 01:33:56;;;;;;;6.23;2.53;;;;;;;2.38;100.00;100740.44;4970084;28;20032;-68
2023/04/14 01:36:30;;;;;;;4.83;2.40;;;;;;;2.38;100.00;100743.88;4965601;28;20027;-67
2023/04/14 01:38:57;;;;;;;8.10;3.00;;;;;;;2.34;100.00;100731.66;4974866;28;20030;-67
2023/04/14 01:41:26;;;;;;;7.13;3.20;;;;;;;2.35;100.00;100737.69;4962243;28;20086;-68
2023/04/14 01:43:54;;;;;;;7.00;3.10;;;;;;;2.34;100.00;100743.59;4962895;28;20101;-68
2023/04/14 01:46:20;;;;;;;5.70;3.00;;;;;;;2.34;100.00;100744.47;4966765;28;20030;-68
2023/04/14 01:48:47;;;;;;;7.23;2.87;;;;;;;2.34;100.00;100743.59;4957564;28;20595;-68
2023/04/14 01:51:17;;;;;;;8.23;2.40;;;;;;;2.32;100.00;100756.25;4974266;28;20051;-67
2023/04/14 01:53:44;;;;;;;7.00;2.67;;;;;;;2.34;100.00;100751.28;4949101;28;20499;-68
2023/04/14 01:56:12;;;;;;;6.50;2.20;;;;;;;2.33;100.00;100752.94;4956038;28;20034;-68
2023/04/14 01:58:40;;;;;;;5.63;2.40;;;;;;;2.36;100.00;100758.25;4954980;28;20031;-68
2023/04/14 02:01:06;;;;;;;7.70;2.60;;;;;;;2.36;100.00;100752.22;4949050;28;20049;-67
2023/04/14 02:03:33;;;;;;;4.43;2.23;;;;;;;2.34;100.00;100752.13;4949534;28;20039;-68
2023/04/14 02:06:01;;;;;;;6.33;2.60;;;;;;;2.32;100.00;100756.25;4964233;28;20370;-67
2023/04/14 02:08:30;;;;;;;4.67;2.27;;;;;;;2.30;100.00;100756.97;4948935;28;20173;-67
2023/04/14 02:10:57;;;;;;;7.10;2.73;;;;;;;2.27;100.00;100758.53;4949047;28;20034;-67
2023/04/14 02:13:24;;;;;;;4.53;2.03;;;;;;;2.26;100.00;100766.09;4978989;28;20035;-67
2023/04/14 02:15:51;;;;;;;8.20;3.23;;;;;;;2.25;100.00;100757.53;4985035;28;20447;-68
2023/04/14 02:18:19;;;;;;;8.27;3.00;;;;;;;2.24;100.00;100752.34;4979860;28;20337;-67
2023/04/14 02:20:46;;;;;;;4.63;2.30;;;;;;;2.21;100.00;100762.38;4990325;28;21440;-68
2023/04/14 02:23:13;;;;;;;9.27;2.93;;;;;;;2.18;100.00;100757.06;4991123;28;20066;-67
2023/04/14 02:25:44;;;;;;;7.23;2.53;;;;;;;2.19;100.00;100763.94;4971480;28;20027;-67
2023/04/14 02:28:21;;;;;;;5.57;2.20;;;;;;;2.14;100.00;100764.50;4952663;28;20407;-67
2023/04/14 02:30:54;;;;;;;5.23;2.60;;;;;;;2.12;100.00;100772.88;4951926;28;20039;-68
2023/04/14 02:33:21;;;;;;;4.87;2.67;;;;;;;2.14;100.00;100769.63;4951882;28;20894;-68
2023/04/14 02:35:54;;;;;;;7.07;2.60;;;;;;;2.13;100.00;100774.66;4965024;28;20034;-67
2023/04/14 02:38:33;;;;;;;5.13;2.17;;;;;;;2.12;100.00;100768.63;4951908;28;20494;-68
2023/04/14 02:41:06;;;;;;;4.63;2.63;;;;;;;2.16;100.00;100777.41;4972317;28;20030;-67
2023/04/14 02:43:40;;;;;;;5.30;2.33;;;;;;;2.18;100.00;100780.09;4990178;28;20034;-67
2023/04/14 02:46:10;;;;;;;6.13;2.67;;;;;;;2.20;100.00;100779.38;4968840;28;20067;-68
2023/04/14 02:48:38;;;;;;;5.53;2.23;;;;;;;2.22;100.00;100779.47;4959915;28;20034;-67
2023/04/14 02:51:05;;;;;;;5.83;2.33;;;;;;;2.21;100.00;100782.84;4952517;28;20183;-67
2023/04/14 02:53:32;;;;;;;6.93;3.10;;;;;;;2.20;100.00;100775.94;4952245;28;20078;-67
2023/04/14 02:55:58;;;;;;;5.40;2.53;;;;;;;2.19;100.00;100784.41;4952546;28;20051;-68
2023/04/14 02:58:25;;;;;;;6.07;3.27;;;;;;;2.18;100.00;100783.50;4952288;28;20416;-67
2023/04/14 03:00:51;;;;;;;6.50;2.60;;;;;;;2.15;100.00;100781.66;4952620;28;20073;-67
2023/04/14 03:03:17;;;;;;;6.63;3.13;;;;;;;2.13;100.00;100785.78;4952133;28;20031;-67
2023/04/14 03:05:43;;;;;;;5.27;2.60;;;;;;;2.12;100.00;100783.13;4952582;28;20392;-67
2023/04/14 03:08:14;;;;;;;4.20;2.67;;;;;;;2.11;100.00;100786.44;4951853;28;20035;-67
2023/04/14 03:10:43;;;;;;;6.40;2.43;;;;;;;2.07;100.00;100790.47;4951593;28;20045;-67
2023/04/14 03:13:10;;;;;;;6.27;2.83;;;;;;;2.04;100.00;100792.84;4953310;28;20031;-68
2023/04/14 03:15:37;;;;;;;6.60;2.23;;;;;;;2.01;100.00;100797.75;4952975;28;20059;-67
2023/04/14 03:18:05;;;;;;;5.77;2.90;;;;;;;2.00;100.00;100790.84;4965514;28;20054;-67
2023/04/14 03:20:32;;;;;;;8.10;3.57;;;;;;;1.97;100.00;100795.75;4989811;28;20034;-67
2023/04/14 03:23:04;;;;;;;7.33;4.00;;;;;;;1.95;100.00;100797.31;4974979;28;20490;-67
2023/04/14 03:25:32;;;;;;;8.03;3.00;;;;;;;1.95;100.00;100787.09;4964790;28;20035;-67
2023/04/14 03:28:00;;;;;;;7.27;3.80;;;;;;;1.94;100.00;100788.78;4958471;28;20384;-67
2023/04/14 03:30:29;;;;;;;6.90;3.10;;;;;;;1.95;100.00;100789.66;4955156;28;20034;-68
2023/04/14 03:32:59;;;;;;;7.90;3.47;;;;;;;1.96;100.00;100786.34;4951466;28;20027;-67
2023/04/14 03:35:26;;;;;;;4.35;2.65;;;;;;;1.97;100.00;100794.09;4951102;28;20031;-68
2023/04/14 03:37:58;;;;;;;7.80;3.60;;;;;;;1.98;100.00;100780.53;4951554;28;20082;-67
2023/04/14 03:40:29;;;;;;;4.73;2.70;;;;;;;1.98;100.00;100787.31;4950814;28;20163;-67
2023/04/14 03:42:57;;;;;;;7.70;3.05;;;;;;;1.99;100.00;100786.53;4975531;28;20026;-67
2023/04/14 03:45:23;;;;;;;7.17;3.30;;;;;;;1.99;100.00;100781.41;4988241;28;20410;-69
2023/04/14 03:47:49;;;;;;;5.23;3.40;;;;;;;1.99;100.00;100791.66;4968706;28;20027;-68
2023/04/14 03:50:17;;;;;;;5.13;3.00;;;;;;;1.98;100.00;100797.56;4961870;28;20026;-68
2023/04/14 03:52:46;;;;;;;8.93;3.43;;;;;;;1.95;100.00;100800.78;4952855;28;20027;-68
2023/04/14 03:55:14;;;;;;;6.83;3.43;;;;;;;1.94;100.00;100787.91;4950929;28;20078;-68
2023/04/14 03:57:42;;;;;;;7.97;3.47;;;;;;;1.92;100.00;100791.22;4961946;28;20038;-68
2023/04/14 04:00:09;;;;;;;4.87;3.50;;;;;;;1.90;100.00;100782.59;4989749;28;20360;-68
2023/04/14 04:02:35;;;;;;;7.17;3.03;;;;;;;1.89;100.00;100790.16;4988398;28;20045;-68
2023/04/14 04:05:01;;;;;;;7.90;3.13;;;;;;;1.90;100.00;100794.47;4988136;28;20118;-68
2023/04/14 04:07:28;;;;;;;8.33;3.20;;;;;;;1.88;100.00;100799.50;4988827;28;20034;-68
2023/04/14 04:09:55;;;;;;;6.03;2.83;;;;;;;1.85;100.00;100794.19;4987177;28;20030;-68
2023/04/14 04:12:23;;;;;;;5.30;3.17;;;;;;;1.83;100.00;100795.75;4981964;28;20023;-68
2023/04/14 04:14:48;;;;;;;4.90;3.20;;;;;;;1.82;100.00;100793.94;4969002;28;20047;-68
2023/04/14 04:17:17;;;;;;;6.87;3.27;;;;;;;1.81;100.00;100797.31;4950490;28;20041;-69
2023/04/14 04:19:43;;;;;;;6.50;3.70;;;;;;;1.81;100.00;100807.53;4974910;28;20097;-68
2023/04/14 04:22:12;;;;;;;7.63;3.37;;;;;;;1.82;100.00;100814.41;4952120;28;20026;-68
2023/04/14 04:24:40;;;;;;;6.47;3.33;;;;;;;1.81;100.00;100807.53;4988263;28;20030;-68
2023/04/14 04:27:05;;;;;;;9.20;3.90;;;;;;;1.79;100.00;100814.19;4987323;28;20390;-68
2023/04/14 04:29:31;;;;;;;7.37;3.40;;;;;;;1.77;100.00;100806.44;4987742;28;20030;-69
2023/04/14 04:31:56;;;;;;;6.13;3.60;;;;;;;1.75;100.00;100813.09;4986705;28;20054;-69
2023/04/14 04:34:24;;;;;;;8.57;3.33;;;;;;;1.74;100.00;100810.44;4980002;28;20434;-68
2023/04/14 04:36:50;;;;;;;7.47;3.20;;;;;;;1.72;100.00;100812.00;4979935;28;20085;-68
2023/04/14 04:39:15;;;;;;;4.53;3.00;;;;;;;1.67;100.00;100812.56;4984783;28;20030;-69
2023/04/14 04:41:41;;;;;;;6.77;3.40;;;;;;;1.67;100.00;100815.13;4982418;28;20443;-67
2023/04/14 04:44:06;;;;;;;6.93;4.00;;;;;;;1.67;100.00;100815.13;4984372;28;20145;-67
2023/04/14 04:46:50;;;;;;;6.10;3.40;;;;;;;1.66;100.00;100810.81;4978578;28;20431;-67
2023/04/14 04:49:15;;;;;;;6.83;3.73;;;;;;;1.67;100.00;100811.72;4955446;28;20477;-67
2023/04/14 04:51:42;;;;;;;7.83;3.70;;;;;;;1.68;100.00;100813.47;4951222;28;20035;-67
2023/04/14 04:54:07;;;;;;;10.27;3.67;;;;;;;1.67;100.00;100804.91;4952986;28;20464;-67
2023/04/14 04:56:32;;;;;;;6.40;3.33;;;;;;;1.68;100.00;100804.16;4951747;28;20086;-67
2023/04/14 04:58:58;;;;;;;7.43;3.67;;;;;;;1.70;100.00;100806.81;4953901;28;20133;-67
2023/04/14 05:01:23;;;;;;;9.23;3.87;;;;;;;1.68;100.00;100801.59;4953437;28;20027;-67
2023/04/14 05:03:49;;;;;;;8.73;3.80;;;;;;;1.71;100.00;100800.03;4956433;28;20115;-68
2023/04/14 05:06:15;;;;;;;11.30;4.13;;;;;;;1.72;100.00;100797.56;4960911;28;20077;-67
2023/04/14 05:08:41;;;;;;;7.40;3.60;;;;;;;1.74;100.00;100797.69;4959733;28;20076;-66
2023/04/14 05:11:06;;;;;;;5.80;3.00;;;;;;;1.75;100.00;100808.00;4959925;28;20042;-67
2023/04/14 05:13:32;;;;;;;5.87;3.60;;;;;;;1.78;100.00;100799.66;4958135;28;20030;-67
2023/04/14 05:16:08;;;;;;;9.47;3.90;;;;;;;1.79;100.00;100801.44;4955415;28;20097;-67
2023/04/14 05:18:34;;;;;;;7.27;3.17;;;;;;;1.81;100.00;100807.53;4968135;28;20166;-67
2023/04/14 05:21:07;;;;;;;7.30;3.83;;;;;;;1.84;100.00;100799.16;4953040;28;20034;-67
2023/04/14 05:23:36;;;;;;;8.07;3.93;;;;;;;1.87;100.00;100800.25;4953313;28;20064;-67
2023/04/14 05:26:03;;;;;;;6.87;3.53;;;;;;;1.88;100.00;100796.94;4954598;28;20039;-67
2023/04/14 05:28:29;;;;;;;9.30;4.53;;;;;;;1.94;100.00;100803.22;4953809;28;20027;-67
2023/04/14 05:30:54;;;;;;;12.30;3.83;;;;;;;1.98;100.00;100800.09;4955516;28;20089;-67
2023/04/14 05:33:20;;;;;;;7.73;3.47;;;;;;;2.01;100.00;100801.19;4953806;28;20035;-67
2023/04/14 05:35:45;;;;;;;7.80;4.00;;;;;;;2.07;100.00;100800.69;4956148;28;20063;-67
2023/04/14 05:38:12;;;;;;;8.40;3.70;;;;;;;2.15;100.00;100804.66;4962391;28;20019;-67
2023/04/14 05:40:37;;;;;;;6.53;4.00;;;;;;;2.23;100.00;100809.41;4964759;28;20031;-67
2023/04/14 05:43:04;;;;;;;8.87;4.17;;;;;;;2.31;100.00;100808.22;4969919;28;20077;-67
2023/04/14 05:45:29;;;;;;;7.47;3.37;;;;;;;2.40;100.00;100811.38;4965275;28;20043;-67
2023/04/14 05:47:55;;;;;;;7.93;4.57;;;;;;;2.49;100.00;100811.09;4974742;28;20469;-66
2023/04/14 05:50:23;;;;;;;6.43;4.50;;;;;;;2.58;100.00;100804.78;4965363;28;20472;-67
2023/04/14 05:52:49;;;;;;;7.03;4.40;;;;;;;2.69;100.00;100808.91;4953355;28;20146;-66
2023/04/14 05:55:14;;;;;;;6.97;4.20;;;;;;;2.79;100.00;100804.38;4953037;28;20462;-65
2023/04/14 05:57:40;;;;;;;8.70;4.23;;;;;;;2.90;100.00;100807.63;4987824;28;20028;-65
2023/04/14 06:00:06;;;;;;;7.80;4.03;;;;;;;3.02;100.00;100807.50;4989671;28;20169;-66
2023/04/14 06:02:32;;;;;;;8.23;3.83;;;;;;;3.14;100.00;100799.69;4989230;28;20034;-65
2023/04/14 06:04:58;;;;;;;7.03;4.17;;;;;;;3.28;100.00;100806.53;4991030;28;20026;-65
2023/04/14 06:07:24;;;;;;;7.67;3.97;;;;;;;3.42;100.00;100809.94;4988589;28;20467;-66
2023/04/14 06:09:49;;;;;;;7.43;4.07;;;;;;;3.59;100.00;100810.06;4990333;28;20038;-65
2023/04/14 06:12:14;;;;;;;7.63;3.40;;;;;;;3.76;100.00;100805.09;4988786;28;20034;-66
2023/04/14 06:14:40;;;;;;;7.87;3.60;;;;;;;3.91;100.00;100805.97;4990158;28;20046;-66
2023/04/14 06:17:05;;;;;;;6.50;3.10;;;;;;;4.13;100.00;100798.66;4983142;28;20025;-65
2023/04/14 06:19:30;;;;;;;6.53;3.17;;;;;;;4.35;100.00;100807.56;4972080;28;20073;-65
2023/04/14 06:21:56;;;;;;;7.53;3.27;;;;;;;4.55;100.00;100807.00;4975938;28;20033;-65
2023/04/14 06:24:21;;;;;;;9.70;3.50;;;;;;;4.75;100.00;100796.09;4977304;28;20045;-65
2023/04/14 06:26:46;;;;;;;5.47;3.27;;;;;;;4.92;100.00;100807.28;4989703;28;20122;-65
2023/04/14 06:29:12;;;;;;;7.60;3.35;;;;;;;5.09;100.00;100794.47;4990472;28;20081;-66
2023/04/14 06:31:37;;;;;;;6.38;3.13;;;;;;;5.25;100.00;100799.63;4987886;28;20080;-66
2023/04/14 06:34:02;;;;;;;8.98;3.10;;;;;;;5.40;100.00;100796.09;4989997;28;20030;-66
2023/04/14 06:36:27;;;;;;;4.57;3.17;;;;;;;5.56;100.00;100797.78;4988431;28;20446;-66
2023/04/14 06:38:53;;;;;;;7.68;3.00;;;;;;;5.80;100.00;100794.72;4990015;28;20033;-66
2023/04/14 06:41:18;;;;;;;8.35;2.95;;;;;;;6.00;100.00;100790.56;4976883;28;20030;-66
2023/04/14 06:43:45;;;;;;;7.05;2.80;;;;;;;6.16;100.00;100791.38;4988503;28;20041;-66
2023/04/14 06:46:10;;;;;;;9.02;3.35;;;;;;;6.30;100.00;100794.59;4986247;28;20030;-66
2023/04/14 06:48:35;;;;;;;7.78;3.22;;;;;;;6.48;100.00;100789.47;4981421;28;20399;-66
2023/04/14 06:51:00;;;;;;;4.43;2.95;;;;;;;6.67;100.00;100795.50;4968181;28;20149;-66
2023/04/14 06:53:26;;;;;;;5.95;2.58;;;;;;;6.90;100.00;100787.97;4966556;28;20043;-66
2023/04/14 06:55:57;;;;;;;6.53;2.50;;;;;;;7.12;100.00;100790.66;4975150;28;20026;-66
2023/04/14 06:58:27;;;;;;;4.00;2.65;;;;;;;7.28;100.00;100792.22;4961605;28;20019;-66
2023/04/14 07:00:57;;;;;;;11.02;3.35;;;;;;;7.52;100.00;100783.81;4971924;28;20022;-66
2023/04/14 07:03:22;;;;;;;9.43;3.50;;;;;;;7.56;100.00;100780.53;4966697;28;20023;-66
2023/04/14 07:05:48;;;;;;;5.03;2.72;;;;;;;7.69;100.00;100782.84;4970922;28;20053;-67
2023/04/14 07:08:13;;;;;;;4.68;3.10;;;;;;;7.98;100.00;100784.88;4960844;28;20029;-66
2023/04/14 07:10:38;;;;;;;6.40;2.72;;;;;;;8.04;100.00;100781.69;4965459;28;20053;-66
2023/04/14 07:13:04;;;;;;;6.05;2.95;;;;;;;8.13;98.99;100782.03;4969809;28;20479;-66
2023/04/14 07:15:29;;;;;;;6.63;3.13;;;;;;;8.31;100.00;100778.44;4960400;28;20146;-65
2023/04/14 07:17:55;;;;;;;8.10;3.35;;;;;;;8.61;100.00;100777.97;4975455;28;20616;-66
2023/04/14 07:20:20;;;;;;;6.85;3.22;;;;;;;9.02;100.00;100779.47;4989835;28;20205;-67
2023/04/14 07:22:45;;;;;;;6.20;3.08;;;;;;;9.34;99.34;100766.84;4989772;28;20026;-68
2023/04/14 07:25:11;;;;;;;5.43;2.80;;;;;;;9.44;90.69;100772.34;4988236;28;20027;-68
2023/04/14 07:27:36;;;;;;;4.78;2.63;;;;;;;9.65;92.59;100768.75;4988663;28;20033;-67
2023/04/14 07:30:02;;;;;;;5.15;2.92;;;;;;;9.87;88.95;100774.66;4989428;28;20069;-66
2023/04/14 07:32:27;;;;;;;4.95;2.70;;;;;;;10.08;86.71;100767.63;4988959;28;20443;-66
2023/04/14 07:34:53;;;;;;;5.40;2.65;;;;;;;10.47;88.59;100765.38;4988140;28;20026;-67
2023/04/14 07:37:19;;;;;;;5.90;2.40;;;;;;;10.86;81.97;100757.94;4985003;28;20511;-67
2023/04/14 07:39:45;;;;;;;6.40;2.60;;;;;;;11.21;80.13;100752.88;4989503;28;20113;-66
2023/04/14 07:42:10;;;;;;;4.60;2.67;;;;;;;11.44;77.78;100760.41;4988171;28;20109;-66
2023/04/14 07:44:35;;;;;;;6.38;2.33;;;;;;;11.76;76.95;100755.19;4988714;28;20748;-67
2023/04/14 07:47:01;;;;;;;5.85;1.90;;;;;;;11.88;68.65;100754.63;4977998;28;20042;-67
2023/04/14 07:49:26;;;;;;;4.35;2.22;;;;;;;12.13;72.78;100744.00;4965849;28;20254;-67
2023/04/14 07:51:51;;;;;;;4.00;1.80;;;;;;;12.35;71.49;100754.91;4963515;28;20248;-67
2023/04/14 07:54:16;;;;;;;5.40;2.08;;;;;;;12.46;69.63;100749.94;4969168;28;20100;-66
2023/04/14 07:56:42;;;;;;;5.40;2.33;;;;;;;12.65;71.35;100748.63;4957841;28;20391;-67
2023/04/14 07:59:07;;;;;;;5.30;2.00;;;;;;;12.89;70.62;100747.41;4965688;28;20398;-67
2023/04/14 08:01:32;;;;;;;4.43;2.35;;;;;;;13.23;70.06;100751.53;4977277;28;20029;-66
2023/04/14 08:03:58;;;;;;;5.53;2.35;;;;;;;13.48;68.37;100745.09;4967890;28;20038;-67
2023/04/14 08:06:23;;;;;;;5.70;2.50;;;;;;;13.58;65.38;100754.00;4966395;28;20057;-66
2023/04/14 08:08:50;;;;;;;3.80;1.75;;;;;;;13.63;62.40;100752.34;4965070;28;20073;-66
2023/04/14 08:11:15;;;;;;;6.72;1.83;;;;;;;13.52;61.75;100748.63;4971949;28;20030;-67
2023/04/14 08:13:42;;;;;;;4.82;1.77;;;;;;;13.34;63.39;100752.63;4965352;28;20034;-67
2023/04/14 08:16:08;;;;;;;5.25;2.83;;;;;;;13.36;63.22;100756.16;4972830;28;20030;-66
2023/04/14 08:18:33;;;;;;;4.70;1.98;;;;;;;13.34;64.18;100755.22;4953602;28;20027;-66
2023/04/14 08:20:58;;;;;;;4.47;1.88;;;;;;;13.51;63.65;100752.94;4961501;28;20468;-67
2023/04/14 08:23:23;;;;;;;4.10;1.73;;;;;;;13.62;62.67;100750.56;4960552;28;20027;-66
2023/04/14 08:25:49;;;;;;;3.08;1.80;;;;;;;13.68;61.84;100750.69;4961769;28;20031;-67
2023/04/14 08:28:14;;;;;;;4.15;1.77;;;;;;;13.62;61.73;100745.34;4959933;28;20546;-66
2023/04/14 08:30:40;;;;;;;4.25;1.75;;;;;;;13.50;62.84;100746.00;4951678;28;20419;-67
2023/04/14 08:33:05;;;;;;;3.22;1.30;;;;;;;13.57;63.66;100747.00;4955732;28;20266;-67
2023/04/14 08:35:31;;;;;;;5.15;1.75;;;;;;;13.68;60.10;100757.63;4950128;28;20031;-67
2023/04/14 08:37:59;;;;;;;3.65;1.80;;;;;;;13.62;58.16;100760.97;4956056;28;20023;-67
2023/04/14 08:40:40;;;;;;;4.10;1.25;;;;;;;13.63;58.50;100747.13;4950196;28;20396;-67
2023/04/14 08:43:06;;;;;;;1.85;0.90;;;;;;;13.60;58.43;100746.19;4949997;28;20035;-67
2023/04/14 08:45:33;;;;;;;3.75;1.15;;;;;;;13.44;57.41;100751.06;4961496;28;20119;-66
2023/04/14 08:47:59;;;;;;;2.25;1.10;;;;;;;13.61;58.29;100750.53;4962319;28;20396;-67
2023/04/14 08:50:30;;;;;;;4.53;1.20;;;;;;;13.69;56.63;100741.13;4949620;28;20030;-67
2023/04/14 08:52:59;;;;;;;;;;;;;;;13.73;56.72;100748.16;4962542;28;20029;-67
2023/04/14 08:55:25;;;;;;;3.10;1.02;;;;;;;13.90;56.62;100753.66;4987616;28;20370;-67
2023/04/14 08:57:51;;;;;;;4.82;1.05;;;;;;;13.85;54.83;100751.84;4974359;28;20433;-66
2023/04/14 09:00:18;;;;;;;4.32;1.55;;;;;;;13.92;56.49;100753.69;4964767;28;20098;-67
2023/04/14 09:02:44;;;;;;;5.88;1.52;;;;;;;13.93;57.55;100751.13;4973462;28;20033;-67
2023/04/14 09:05:10;;;;;;;3.58;1.27;;;;;;;13.89;55.42;100764.94;4965884;28;20023;-67
2023/04/14 09:07:36;;;;;;;5.13;1.20;;;;;;;13.85;56.42;100747.47;4973823;28;20041;-67
2023/04/14 09:10:02;;;;;;;4.35;1.38;;;;;;;13.70;56.09;100748.09;4966670;28;20035;-67
2023/04/14 09:12:29;;;;;;;4.30;1.10;;;;;;;13.71;56.39;100741.19;4974362;28;20018;-67
2023/04/14 09:14:57;;;;;;;2.53;1.10;;;;;;;13.91;55.77;100742.38;4967021;28;20408;-66
2023/04/14 09:17:25;;;;;;;3.25;0.90;;;;;;;14.02;56.97;100744.28;4970782;28;20031;-68
2023/04/14 09:19:50;;;;;;;3.90;1.52;;;;;;;14.20;57.42;100745.44;4949312;28;20031;-67
2023/04/14 09:22:17;;;;;;;3.25;1.27;;;;;;;14.28;55.57;100741.22;4949429;28;20027;-68
2023/04/14 09:24:43;;;;;;;4.43;1.35;;;;;;;14.39;56.17;100744.00;4948232;28;20027;-68
2023/04/14 09:27:08;;;;;;;4.78;1.20;;;;;;;14.44;53.79;100731.91;4946537;28;20024;-67
2023/04/14 09:29:35;;;;;;;2.92;1.33;;;;;;;14.41;55.32;100742.25;4948165;28;20554;-68
2023/04/14 09:32:00;;;;;;;4.32;0.90;;;;;;;14.51;55.22;100738.06;4955131;28;20038;-67
2023/04/14 09:34:26;;;;;;;3.90;1.40;;;;;;;14.36;54.09;100736.09;4986410;28;20026;-69
2023/04/14 09:37:05;;;;;;;3.53;1.30;;;;;;;13.81;54.65;100735.28;4985962;28;20038;-68
2023/04/14 09:39:32;;;;;;;2.15;1.40;;;;;;;13.73;56.23;100718.63;4986898;28;20033;-68
2023/04/14 09:41:58;;;;;;;2.80;1.27;;;;;;;13.75;56.36;100722.13;4985118;28;20041;-68
2023/04/14 09:44:24;;;;;;;5.40;1.60;;;;;;;14.00;57.28;100725.16;4964365;28;20054;-68
2023/04/14 09:46:59;;;;;;;3.63;1.00;;;;;;;13.83;53.29;100727.50;4970662;28;20089;-68
2023/04/14 09:49:26;;;;;;;3.80;0.93;;;;;;;13.37;54.17;100721.47;4981647;28;20101;-67
2023/04/14 09:51:55;;;;;;;3.70;1.40;;;;;;;13.04;55.47;100714.78;4967663;28;20027;-67
2023/04/14 09:54:25;;;;;;;5.40;1.30;;;;;;;12.95;57.91;100718.06;4955465;28;20042;-67
2023/04/14 09:56:54;;;;;;;3.50;1.23;;;;;;;13.04;56.50;100712.16;4969998;28;20026;-67
2023/04/14 09:59:33;;;;;;;4.13;1.20;;;;;;;13.25;55.70;100709.09;4982746;28;20069;-67
2023/04/14 10:02:02;;;;;;;4.53;1.40;;;;;;;13.00;57.34;100702.53;4980899;28;20166;-68
2023/04/14 10:04:27;;;;;;;2.95;1.02;;;;;;;13.18;56.66;100700.31;4983053;28;20102;-68
2023/04/14 10:06:57;;;;;;;4.32;1.50;;;;;;;13.29;54.67;100705.69;4979935;28;20114;-68
2023/04/14 10:09:26;;;;;;;2.50;1.00;;;;;;;13.55;57.69;100707.03;4984932;28;20370;-68
2023/04/14 10:12:07;;;;;;;2.67;1.15;;;;;;;13.40;54.71;100705.03;4982766;28;20371;-68
2023/04/14 10:14:33;;;;;;;2.35;0.90;;;;;;;13.41;56.08;100699.84;4973128;28;20791;-68
2023/04/14 10:16:59;;;;;;;5.57;1.10;;;;;;;13.49;57.70;100692.16;4974736;28;20030;-68
2023/04/14 10:19:26;;;;;;;4.15;1.35;;;;;;;13.40;57.56;100692.88;4984525;28;20053;-68
2023/04/14 10:21:52;;;;;;;2.00;0.98;;;;;;;13.47;55.12;100682.59;4985290;28;20052;-67
2023/04/14 10:24:20;;;;;;;3.55;1.20;;;;;;;13.59;54.26;100687.16;4982881;28;20034;-68
2023/04/14 10:26:47;;;;;;;3.80;1.30;;;;;;;13.66;54.03;100689.00;4984822;28;20459;-68
2023/04/14 10:29:12;;;;;;;2.63;1.15;;;;;;;13.79;55.69;100679.69;4984820;28;20026;-68
2023/04/14 10:31:48;;;;;;;2.72;1.25;;;;;;;13.62;53.29;100682.88;4986294;28;20033;-68
2023/04/14 10:34:17;;;;;;;3.55;1.00;;;;;;;13.70;54.03;100683.00;4986050;28;20423;-69
2023/04/14 10:36:42;;;;;;;3.15;1.00;;;;;;;13.79;55.72;100674.47;4984212;28;20035;-68
2023/04/14 10:39:10;;;;;;;4.32;1.00;;;;;;;14.02;54.10;100673.94;4987540;28;20022;-69
2023/04/14 10:41:46;;;;;;;3.45;1.05;;;;;;;13.96;52.41;100673.88;4971576;28;20170;-68
2023/04/14 10:44:31;;;;;;;3.45;1.48;;;;;;;13.86;54.58;100678.94;4951275;28;20109;-68
2023/04/14 10:47:03;;;;;;;3.78;1.10;;;;;;;13.59;52.60;100668.94;4967400;28;20023;-69
2023/04/14 10:49:39;;;;;;;3.67;1.08;;;;;;;13.41;54.79;100663.41;4964934;28;20439;-68
2023/04/14 10:52:25;;;;;;;2.08;1.00;;;;;;;13.27;54.99;100664.91;4965039;28;20043;-68
2023/04/14 10:55:06;;;;;;;2.75;0.88;;;;;;;13.38;54.66;100654.69;4968632;28;20293;-68
2023/04/14 10:57:34;;;;;;;;;;;;;;;13.25;53.19;100659.66;4977369;28;20077;-69
2023/04/14 10:59:59;;;;;;;3.88;1.40;;;;;;;13.31;54.22;100658.91;4990318;28;20366;-68
2023/04/14 11:02:30;;;;;;;4.47;1.05;;;;;;;13.60;54.21;100652.47;4959481;28;20303;-68
2023/04/14 11:05:10;;;;;;;2.90;0.98;;;;;;;13.86;53.67;100654.59;4970699;28;20039;-68
2023/04/14 11:07:46;;;;;;;3.17;1.00;;;;;;;14.12;52.68;100651.53;4959829;28;20065;-68
2023/04/14 11:10:32;;;;;;;3.33;1.02;;;;;;;14.05;51.47;100650.53;4985503;28;20538;-68
2023/04/14 11:13:02;;;;;;;3.00;1.13;;;;;;;13.89;52.25;100639.91;4989287;28;20052;-68
2023/04/14 11:15:47;;;;;;;5.63;1.20;;;;;;;14.06;52.50;100641.88;4988976;28;20038;-69
2023/04/14 11:18:15;;;;;;;3.17;1.17;;;;;;;14.20;51.79;100643.78;4966705;28;20029;-69
2023/04/14 11:20:41;;;;;;;4.75;1.65;;;;;;;13.83;52.29;100639.81;4989195;28;20632;-68
2023/04/14 11:23:08;;;;;;;3.08;1.23;;;;;;;13.66;52.66;100643.03;4989798;28;20038;-68
2023/04/14 11:25:33;;;;;;;4.00;1.38;;;;;;;13.50;52.39;100643.59;4988797;28;20034;-68
2023/04/14 11:28:04;;;;;;;3.20;1.10;;;;;;;13.47;53.35;100630.53;4988732;28;20077;-68
2023/04/14 11:30:30;;;;;;;3.35;1.25;;;;;;;13.34;51.71;100630.31;4988505;28;20113;-69